Bagley, Wisconsin
Current Conditions -  °F | °C
As of 12:35 PM on Thursday 23 Oct 2014 (Local Time) from KPDC Reporting Station
Overcast Overcast  
Wind Chill: 47°   Ceiling: 1200
Heat Index: 47°   Visibility: 10mi
Dew Point: 44°   Wind: 3mph
Humidity: 90%   Direction: 110°ESE
Pressure: 30.07"   Gusts: NA
Location:  42.91°N, 91.1°W
Report Text: KPDC 231735Z AUTO 11003KT 10SM BKN012 OVC020 09/07 A3007 RMK AO2 P0001 T00850069
Loading
Personal Weather Stations






























Interactive Weather Map
Tropical Storm Tracking
New forecast layout! Learn more

10-Day Weather Forecast

Advertisements
Track Severe Weather on mobile